sensor_id;sensor_type;location;lat;lon;timestamp;pressure;altitude;pressure_sealevel;temperature;humidity
23318;BME280;11831;55.918;37.746;2023-12-20T00:37:30;62623.91;;;-143.77;0.00
23318;BME280;11831;55.918;37.746;2023-12-20T00:39:57;62623.91;;;-143.77;0.00
23318;BME280;11831;55.918;37.746;2023-12-20T00:42:23;62623.91;;;-143.77;0.00
23318;BME280;11831;55.918;37.746;2023-12-20T00:44:49;62623.91;;;-143.77;0.00
23318;BME280;11831;55.918;37.746;2023-12-20T00:47:16;62623.91;;;-143.77;0.00
23318;BME280;11831;55.918;37.746;2023-12-20T00:49:43;62623.91;;;-143.77;0.00
23318;BME280;11831;55.918;37.746;2023-12-20T00:52:09;62623.91;;;-143.77;0.00
23318;BME280;11831;55.918;37.746;2023-12-20T00:54:35;62623.91;;;25.23;0.00
23318;BME280;11831;55.918;37.746;2023-12-20T00:57:01;62623.91;;;22.64;0.00
23318;BME280;11831;55.918;37.746;2023-12-20T02:49:08;62623.91;;;-143.77;0.00
23318;BME280;11831;55.918;37.746;2023-12-20T02:51:34;62623.91;;;22.63;0.00
23318;BME280;11831;55.918;37.746;2023-12-20T02:54:04;62623.91;;;-143.77;0.00
23318;BME280;11831;55.918;37.746;2023-12-20T02:56:32;62623.91;;;-143.77;0.00
23318;BME280;11831;55.918;37.746;2023-12-20T04:42:50;96947.69;;;6.08;0.00
23318;BME280;11831;55.918;37.746;2023-12-20T04:47:43;97137.09;;;6.07;0.00
23318;BME280;11831;55.918;37.746;2023-12-20T04:50:09;97195.91;;;6.31;0.00
23318;BME280;11831;55.918;37.746;2023-12-20T04:52:37;97177.34;;;5.99;0.00
23318;BME280;11831;55.918;37.746;2023-12-20T04:55:04;97057.06;;;5.83;0.00
23318;BME280;11831;55.918;37.746;2023-12-20T04:57:30;97395.00;;;5.71;0.00
23318;BME280;11831;55.918;37.746;2023-12-20T04:59:56;97405.25;;;5.84;0.00
23318;BME280;11831;55.918;37.746;2023-12-20T05:02:23;97391.88;;;6.17;0.00
23318;BME280;11831;55.918;37.746;2023-12-20T05:04:49;97407.75;;;5.90;0.00
23318;BME280;11831;55.918;37.746;2023-12-20T05:07:15;97414.34;;;5.88;0.00
23318;BME280;11831;55.918;37.746;2023-12-20T05:09:42;97380.47;;;6.17;0.00
23318;BME280;11831;55.918;37.746;2023-12-20T05:12:08;97391.44;;;6.52;0.00
23318;BME280;11831;55.918;37.746;2023-12-20T05:14:35;97393.56;;;6.02;0.00
23318;BME280;11831;55.918;37.746;2023-12-20T05:17:01;97384.09;;;6.11;0.00
23318;BME280;11831;55.918;37.746;2023-12-20T05:19:29;97399.31;;;6.15;0.00
23318;BME280;11831;55.918;37.746;2023-12-20T05:21:55;97388.84;;;6.09;0.00
23318;BME280;11831;55.918;37.746;2023-12-20T05:24:21;97390.31;;;6.43;0.00
23318;BME280;11831;55.918;37.746;2023-12-20T05:26:48;97386.63;;;6.22;0.00
23318;BME280;11831;55.918;37.746;2023-12-20T05:29:14;97404.41;;;6.76;0.00
23318;BME280;11831;55.918;37.746;2023-12-20T05:31:40;97395.19;;;6.30;0.00
23318;BME280;11831;55.918;37.746;2023-12-20T05:34:06;97411.16;;;6.35;0.00
23318;BME280;11831;55.918;37.746;2023-12-20T05:36:33;97415.63;;;6.29;0.00
23318;BME280;11831;55.918;37.746;2023-12-20T05:38:59;97431.44;;;6.19;0.00
23318;BME280;11831;55.918;37.746;2023-12-20T05:41:25;97415.84;;;6.49;0.00
23318;BME280;11831;55.918;37.746;2023-12-20T05:43:52;97417.78;;;6.10;0.00
23318;BME280;11831;55.918;37.746;2023-12-20T05:46:18;97420.34;;;6.49;0.00
23318;BME280;11831;55.918;37.746;2023-12-20T05:48:44;97425.16;;;6.52;0.00
23318;BME280;11831;55.918;37.746;2023-12-20T05:51:13;97454.81;;;6.00;0.00
23318;BME280;11831;55.918;37.746;2023-12-20T05:53:39;97430.59;;;5.91;0.00
23318;BME280;11831;55.918;37.746;2023-12-20T05:56:06;97431.66;;;6.39;0.00
23318;BME280;11831;55.918;37.746;2023-12-20T05:58:33;97420.78;;;7.32;0.00
23318;BME280;11831;55.918;37.746;2023-12-20T06:00:59;97434.50;;;6.33;0.00
23318;BME280;11831;55.918;37.746;2023-12-20T06:03:25;97423.56;;;6.51;0.00
23318;BME280;11831;55.918;37.746;2023-12-20T06:05:52;97450.69;;;6.09;0.00
23318;BME280;11831;55.918;37.746;2023-12-20T06:08:18;97429.62;;;6.46;0.00
23318;BME280;11831;55.918;37.746;2023-12-20T06:10:44;97426.25;;;6.56;0.00
23318;BME280;11831;55.918;37.746;2023-12-20T06:13:11;97418.53;;;6.28;0.00
23318;BME280;11831;55.918;37.746;2023-12-20T06:15:39;97431.81;;;6.28;0.00
23318;BME280;11831;55.918;37.746;2023-12-20T06:18:06;97417.22;;;6.84;0.00
23318;BME280;11831;55.918;37.746;2023-12-20T06:20:33;97416.03;;;6.16;0.00
23318;BME280;11831;55.918;37.746;2023-12-20T06:22:59;97446.31;;;5.98;0.00
23318;BME280;11831;55.918;37.746;2023-12-20T06:25:25;97438.75;;;6.12;0.00
23318;BME280;11831;55.918;37.746;2023-12-20T06:27:52;97452.47;;;6.26;0.00
23318;BME280;11831;55.918;37.746;2023-12-20T06:30:18;97451.03;;;6.40;0.00
23318;BME280;11831;55.918;37.746;2023-12-20T06:32:45;97446.47;;;6.35;0.00
23318;BME280;11831;55.918;37.746;2023-12-20T06:35:13;97451.88;;;6.18;0.00
23318;BME280;11831;55.918;37.746;2023-12-20T06:37:39;97448.84;;;6.59;0.00
23318;BME280;11831;55.918;37.746;2023-12-20T06:40:09;97428.75;;;6.41;0.00
23318;BME280;11831;55.918;37.746;2023-12-20T06:42:36;97427.66;;;6.64;0.00
23318;BME280;11831;55.918;37.746;2023-12-20T06:45:04;97408.22;;;6.85;0.00
23318;BME280;11831;55.918;37.746;2023-12-20T06:47:30;97427.56;;;6.80;0.00
23318;BME280;11831;55.918;37.746;2023-12-20T06:49:56;97387.25;;;7.68;0.00
23318;BME280;11831;55.918;37.746;2023-12-20T06:52:23;97429.75;;;6.62;0.00
23318;BME280;11831;55.918;37.746;2023-12-20T06:54:49;97444.38;;;6.91;0.00
23318;BME280;11831;55.918;37.746;2023-12-20T06:57:15;97454.41;;;6.57;0.00
23318;BME280;11831;55.918;37.746;2023-12-20T06:59:42;97441.91;;;6.79;0.00
23318;BME280;11831;55.918;37.746;2023-12-20T07:04:36;97387.97;;;6.79;0.00
23318;BME280;11831;55.918;37.746;2023-12-20T07:07:04;97363.72;;;6.70;0.00
23318;BME280;11831;55.918;37.746;2023-12-20T07:09:31;97457.59;;;7.13;0.00
23318;BME280;11831;55.918;37.746;2023-12-20T07:11:57;97492.78;;;6.71;0.00
23318;BME280;11831;55.918;37.746;2023-12-20T07:14:25;97501.31;;;6.46;0.00
23318;BME280;11831;55.918;37.746;2023-12-20T07:16:51;97510.06;;;6.47;0.00
23318;BME280;11831;55.918;37.746;2023-12-20T07:19:18;97532.22;;;6.36;0.00
23318;BME280;11831;55.918;37.746;2023-12-20T07:21:44;97519.09;;;6.73;0.00
23318;BME280;11831;55.918;37.746;2023-12-20T07:24:10;97530.13;;;6.16;0.00
23318;BME280;11831;55.918;37.746;2023-12-20T07:26:37;97539.69;;;6.39;0.00
23318;BME280;11831;55.918;37.746;2023-12-20T07:29:04;97505.97;;;6.61;0.00
23318;BME280;11831;55.918;37.746;2023-12-20T07:31:30;97536.09;;;6.28;0.00
23318;BME280;11831;55.918;37.746;2023-12-20T07:33:57;97527.91;;;6.51;0.00
23318;BME280;11831;55.918;37.746;2023-12-20T07:36:23;97569.81;;;6.11;0.00
23318;BME280;11831;55.918;37.746;2023-12-20T07:38:49;97527.88;;;6.30;0.00
23318;BME280;11831;55.918;37.746;2023-12-20T07:41:16;97504.50;;;6.48;0.00
23318;BME280;11831;55.918;37.746;2023-12-20T07:43:42;97530.59;;;6.57;0.00
23318;BME280;11831;55.918;37.746;2023-12-20T07:46:08;97520.66;;;6.96;0.00
23318;BME280;11831;55.918;37.746;2023-12-20T07:48:35;97528.00;;;6.62;0.00
23318;BME280;11831;55.918;37.746;2023-12-20T07:51:02;97554.41;;;6.73;0.00
23318;BME280;11831;55.918;37.746;2023-12-20T07:53:29;97540.81;;;6.43;0.00
23318;BME280;11831;55.918;37.746;2023-12-20T07:55:55;97540.38;;;6.51;0.00
23318;BME280;11831;55.918;37.746;2023-12-20T07:58:21;97557.81;;;6.69;0.00
23318;BME280;11831;55.918;37.746;2023-12-20T08:00:48;97549.63;;;6.97;0.00
23318;BME280;11831;55.918;37.746;2023-12-20T08:03:14;97554.00;;;6.60;0.00
23318;BME280;11831;55.918;37.746;2023-12-20T08:05:41;97548.19;;;6.41;0.00
23318;BME280;11831;55.918;37.746;2023-12-20T08:08:07;97580.09;;;6.24;0.00
23318;BME280;11831;55.918;37.746;2023-12-20T08:10:33;97551.53;;;6.75;0.00
23318;BME280;11831;55.918;37.746;2023-12-20T08:13:00;97529.84;;;6.83;0.00
23318;BME280;11831;55.918;37.746;2023-12-20T08:15:26;97567.72;;;6.51;0.00
23318;BME280;11831;55.918;37.746;2023-12-20T08:17:52;97592.16;;;6.32;0.00
23318;BME280;11831;55.918;37.746;2023-12-20T08:20:19;97557.56;;;6.92;0.00
23318;BME280;11831;55.918;37.746;2023-12-20T08:22:45;97555.56;;;6.77;0.00
23318;BME280;11831;55.918;37.746;2023-12-20T08:25:12;97560.19;;;7.14;0.00
23318;BME280;11831;55.918;37.746;2023-12-20T08:27:40;97567.16;;;7.20;0.00
23318;BME280;11831;55.918;37.746;2023-12-20T08:30:10;97569.09;;;6.76;0.00
23318;BME280;11831;55.918;37.746;2023-12-20T08:32:36;97571.75;;;6.76;0.00
23318;BME280;11831;55.918;37.746;2023-12-20T08:35:03;97575.66;;;6.73;0.00
23318;BME280;11831;55.918;37.746;2023-12-20T08:37:31;97570.28;;;7.44;0.00
23318;BME280;11831;55.918;37.746;2023-12-20T08:39:57;97552.47;;;7.12;0.00
23318;BME280;11831;55.918;37.746;2023-12-20T08:42:23;97578.72;;;6.60;0.00
23318;BME280;11831;55.918;37.746;2023-12-20T08:44:51;97570.34;;;6.73;0.00
23318;BME280;11831;55.918;37.746;2023-12-20T08:47:18;97549.44;;;6.77;0.00
23318;BME280;11831;55.918;37.746;2023-12-20T08:49:45;97530.31;;;7.34;0.00
23318;BME280;11831;55.918;37.746;2023-12-20T08:52:12;97553.13;;;7.03;0.00
23318;BME280;11831;55.918;37.746;2023-12-20T08:54:38;97527.28;;;6.93;0.00
23318;BME280;11831;55.918;37.746;2023-12-20T08:57:05;97557.41;;;7.63;0.00
23318;BME280;11831;55.918;37.746;2023-12-20T08:59:33;97561.81;;;6.93;0.00
23318;BME280;11831;55.918;37.746;2023-12-20T09:01:59;97566.69;;;7.01;0.00
23318;BME280;11831;55.918;37.746;2023-12-20T09:04:25;97557.53;;;7.14;0.00
23318;BME280;11831;55.918;37.746;2023-12-20T09:06:52;97543.69;;;7.12;0.00
23318;BME280;11831;55.918;37.746;2023-12-20T09:09:18;97552.53;;;6.96;0.00
23318;BME280;11831;55.918;37.746;2023-12-20T09:11:44;97531.00;;;7.51;0.00
23318;BME280;11831;55.918;37.746;2023-12-20T09:14:12;97557.75;;;7.39;0.00
23318;BME280;11831;55.918;37.746;2023-12-20T09:16:38;97534.25;;;6.99;0.00
23318;BME280;11831;55.918;37.746;2023-12-20T09:19:04;97533.81;;;7.07;0.00
23318;BME280;11831;55.918;37.746;2023-12-20T09:21:31;97490.06;;;7.20;0.00
23318;BME280;11831;55.918;37.746;2023-12-20T09:23:57;97500.78;;;8.09;0.00
23318;BME280;11831;55.918;37.746;2023-12-20T09:26:24;97502.00;;;7.92;0.00
23318;BME280;11831;55.918;37.746;2023-12-20T09:28:51;97515.13;;;7.29;0.00
23318;BME280;11831;55.918;37.746;2023-12-20T09:31:17;97558.97;;;7.00;0.00
23318;BME280;11831;55.918;37.746;2023-12-20T09:33:43;97513.69;;;7.16;0.00
23318;BME280;11831;55.918;37.746;2023-12-20T09:36:09;97527.25;;;7.47;0.00
23318;BME280;11831;55.918;37.746;2023-12-20T09:38:36;97532.16;;;7.33;0.00
23318;BME280;11831;55.918;37.746;2023-12-20T09:41:02;97543.56;;;7.02;0.00
23318;BME280;11831;55.918;37.746;2023-12-20T09:43:31;97535.78;;;7.49;0.00
23318;BME280;11831;55.918;37.746;2023-12-20T09:46:03;97528.31;;;7.46;0.00
23318;BME280;11831;55.918;37.746;2023-12-20T09:48:31;97535.53;;;7.24;0.00
23318;BME280;11831;55.918;37.746;2023-12-20T09:50:59;97559.44;;;6.70;0.00
23318;BME280;11831;55.918;37.746;2023-12-20T09:53:26;97544.66;;;7.33;0.00
23318;BME280;11831;55.918;37.746;2023-12-20T09:55:59;97537.41;;;7.23;0.00
23318;BME280;11831;55.918;37.746;2023-12-20T09:58:28;97541.38;;;7.21;0.00
23318;BME280;11831;55.918;37.746;2023-12-20T10:00:55;97573.41;;;6.82;0.00
23318;BME280;11831;55.918;37.746;2023-12-20T10:03:25;97546.69;;;6.94;0.00
23318;BME280;11831;55.918;37.746;2023-12-20T10:05:54;97543.59;;;7.34;0.00
23318;BME280;11831;55.918;37.746;2023-12-20T10:08:22;97558.72;;;7.28;0.00
23318;BME280;11831;55.918;37.746;2023-12-20T10:10:50;97551.72;;;7.86;0.00
23318;BME280;11831;55.918;37.746;2023-12-20T10:13:16;97552.00;;;7.21;0.00
23318;BME280;11831;55.918;37.746;2023-12-20T10:15:43;97559.75;;;7.27;0.00
23318;BME280;11831;55.918;37.746;2023-12-20T10:18:11;97548.91;;;7.34;0.00
23318;BME280;11831;55.918;37.746;2023-12-20T10:20:40;97539.59;;;7.31;0.00
23318;BME280;11831;55.918;37.746;2023-12-20T10:23:06;97552.34;;;7.02;0.00
23318;BME280;11831;55.918;37.746;2023-12-20T10:25:33;97544.31;;;7.93;0.00
23318;BME280;11831;55.918;37.746;2023-12-20T10:28:13;97556.31;;;7.27;0.00
23318;BME280;11831;55.918;37.746;2023-12-20T10:30:40;97544.91;;;7.31;0.00
23318;BME280;11831;55.918;37.746;2023-12-20T10:33:07;97552.22;;;7.46;0.00
23318;BME280;11831;55.918;37.746;2023-12-20T10:35:35;97547.50;;;7.21;0.00
23318;BME280;11831;55.918;37.746;2023-12-20T10:38:05;97559.34;;;7.72;0.00
23318;BME280;11831;55.918;37.746;2023-12-20T10:40:36;97570.50;;;7.37;0.00
23318;BME280;11831;55.918;37.746;2023-12-20T10:43:03;97583.16;;;7.03;0.00
23318;BME280;11831;55.918;37.746;2023-12-20T10:45:30;97535.78;;;7.49;0.00
23318;BME280;11831;55.918;37.746;2023-12-20T10:47:57;97547.25;;;7.92;0.00
23318;BME280;11831;55.918;37.746;2023-12-20T10:50:27;97557.50;;;7.41;0.00
23318;BME280;11831;55.918;37.746;2023-12-20T10:52:55;97545.38;;;7.55;0.00
23318;BME280;11831;55.918;37.746;2023-12-20T10:55:23;97557.94;;;7.65;0.00
23318;BME280;11831;55.918;37.746;2023-12-20T10:57:51;97558.84;;;7.11;0.00
23318;BME280;11831;55.918;37.746;2023-12-20T11:00:18;97555.47;;;7.21;0.00
23318;BME280;11831;55.918;37.746;2023-12-20T11:02:46;97557.94;;;7.33;0.00
23318;BME280;11831;55.918;37.746;2023-12-20T11:08:33;97547.81;;;7.30;0.00
23318;BME280;11831;55.918;37.746;2023-12-20T11:11:13;97546.03;;;7.67;0.00
23318;BME280;11831;55.918;37.746;2023-12-20T11:13:53;97538.94;;;7.46;0.00
23318;BME280;11831;55.918;37.746;2023-12-20T11:16:20;97552.34;;;7.61;0.00
23318;BME280;11831;55.918;37.746;2023-12-20T11:18:46;97564.84;;;7.61;0.00
23318;BME280;11831;55.918;37.746;2023-12-20T11:21:13;97537.44;;;7.28;0.00
23318;BME280;11831;55.918;37.746;2023-12-20T11:23:42;97560.91;;;7.04;0.00
23318;BME280;11831;55.918;37.746;2023-12-20T11:26:08;97551.09;;;7.37;0.00
23318;BME280;11831;55.918;37.746;2023-12-20T11:28:35;97547.50;;;7.90;0.00
23318;BME280;11831;55.918;37.746;2023-12-20T11:31:02;97559.38;;;7.40;0.00
23318;BME280;11831;55.918;37.746;2023-12-20T11:33:37;97559.19;;;7.52;0.00
23318;BME280;11831;55.918;37.746;2023-12-20T11:36:13;97557.66;;;7.29;0.00
23318;BME280;11831;55.918;37.746;2023-12-20T11:39:01;97555.94;;;8.19;0.00
23318;BME280;11831;55.918;37.746;2023-12-20T11:41:34;97572.97;;;7.44;0.00
23318;BME280;11831;55.918;37.746;2023-12-20T11:44:04;97562.31;;;7.44;0.00
23318;BME280;11831;55.918;37.746;2023-12-20T11:46:31;97567.41;;;7.83;0.00
23318;BME280;11831;55.918;37.746;2023-12-20T11:48:57;97569.31;;;7.55;0.00
23318;BME280;11831;55.918;37.746;2023-12-20T11:51:24;97576.94;;;8.16;0.00
23318;BME280;11831;55.918;37.746;2023-12-20T11:53:53;97580.38;;;7.42;0.00
23318;BME280;11831;55.918;37.746;2023-12-20T11:56:19;97583.66;;;7.22;0.00
23318;BME280;11831;55.918;37.746;2023-12-20T11:58:46;97573.78;;;7.50;0.00
23318;BME280;11831;55.918;37.746;2023-12-20T12:01:13;97573.88;;;7.60;0.00
23318;BME280;11831;55.918;37.746;2023-12-20T12:03:39;97571.47;;;7.58;0.00
23318;BME280;11831;55.918;37.746;2023-12-20T12:06:06;97576.03;;;7.63;0.00
23318;BME280;11831;55.918;37.746;2023-12-20T12:08:33;97562.41;;;7.54;0.00
23318;BME280;11831;55.918;37.746;2023-12-20T12:11:00;97573.25;;;7.21;0.00
23318;BME280;11831;55.918;37.746;2023-12-20T12:13:26;97568.00;;;7.26;0.00
23318;BME280;11831;55.918;37.746;2023-12-20T12:15:53;97588.72;;;7.24;0.00
23318;BME280;11831;55.918;37.746;2023-12-20T12:18:20;97599.87;;;7.26;0.00
23318;BME280;11831;55.918;37.746;2023-12-20T12:20:47;97576.94;;;7.14;0.00
23318;BME280;11831;55.918;37.746;2023-12-20T12:23:13;97574.38;;;7.57;0.00
23318;BME280;11831;55.918;37.746;2023-12-20T12:25:39;97585.66;;;7.10;0.00
23318;BME280;11831;55.918;37.746;2023-12-20T12:28:06;97584.72;;;6.99;0.00
23318;BME280;11831;55.918;37.746;2023-12-20T12:30:33;97586.47;;;7.10;0.00
23318;BME280;11831;55.918;37.746;2023-12-20T12:32:59;97587.81;;;7.40;0.00
23318;BME280;11831;55.918;37.746;2023-12-20T12:35:26;97593.25;;;7.01;0.00
23318;BME280;11831;55.918;37.746;2023-12-20T12:37:52;97589.84;;;7.33;0.00
23318;BME280;11831;55.918;37.746;2023-12-20T12:40:18;97599.06;;;6.98;0.00
23318;BME280;11831;55.918;37.746;2023-12-20T12:42:46;97603.72;;;7.35;0.00
23318;BME280;11831;55.918;37.746;2023-12-20T12:45:13;97605.31;;;7.36;0.00
23318;BME280;11831;55.918;37.746;2023-12-20T12:47:40;97600.94;;;7.52;0.00
23318;BME280;11831;55.918;37.746;2023-12-20T12:50:06;97609.34;;;7.70;0.00
23318;BME280;11831;55.918;37.746;2023-12-20T12:52:33;97616.25;;;8.03;0.00
23318;BME280;11831;55.918;37.746;2023-12-20T12:54:59;97617.41;;;7.48;0.00
23318;BME280;11831;55.918;37.746;2023-12-20T12:57:26;97620.31;;;7.47;0.00
23318;BME280;11831;55.918;37.746;2023-12-20T12:59:52;97631.78;;;7.53;0.00
23318;BME280;11831;55.918;37.746;2023-12-20T13:02:18;97621.19;;;7.31;0.00
23318;BME280;11831;55.918;37.746;2023-12-20T13:04:45;97610.81;;;7.56;0.00
23318;BME280;11831;55.918;37.746;2023-12-20T13:07:12;97615.22;;;7.72;0.00
23318;BME280;11831;55.918;37.746;2023-12-20T13:09:39;97613.91;;;6.94;0.00
23318;BME280;11831;55.918;37.746;2023-12-20T13:12:06;97607.28;;;7.45;0.00
23318;BME280;11831;55.918;37.746;2023-12-20T13:14:36;97602.53;;;7.53;0.00
23318;BME280;11831;55.918;37.746;2023-12-20T13:17:06;97590.97;;;7.37;0.00
23318;BME280;11831;55.918;37.746;2023-12-20T13:19:33;97604.22;;;7.05;0.00
23318;BME280;11831;55.918;37.746;2023-12-20T13:21:59;97594.06;;;7.29;0.00
23318;BME280;11831;55.918;37.746;2023-12-20T13:24:25;97599.63;;;7.27;0.00
23318;BME280;11831;55.918;37.746;2023-12-20T13:26:52;97591.44;;;7.61;0.00
23318;BME280;11831;55.918;37.746;2023-12-20T13:29:18;97590.22;;;7.41;0.00
23318;BME280;11831;55.918;37.746;2023-12-20T13:31:44;97595.78;;;7.40;0.00
23318;BME280;11831;55.918;37.746;2023-12-20T13:34:11;97615.84;;;7.04;0.00
23318;BME280;11831;55.918;37.746;2023-12-20T13:36:38;97605.31;;;7.36;0.00
23318;BME280;11831;55.918;37.746;2023-12-20T13:39:05;97606.28;;;6.76;0.00
23318;BME280;11831;55.918;37.746;2023-12-20T13:41:31;97610.31;;;7.05;0.00
23318;BME280;11831;55.918;37.746;2023-12-20T13:43:57;97621.88;;;6.72;0.00
23318;BME280;11831;55.918;37.746;2023-12-20T13:46:24;97622.69;;;6.51;0.00
23318;BME280;11831;55.918;37.746;2023-12-20T13:48:50;97612.06;;;7.22;0.00
23318;BME280;11831;55.918;37.746;2023-12-20T13:51:16;97621.00;;;6.89;0.00
23318;BME280;11831;55.918;37.746;2023-12-20T13:53:44;97607.97;;;7.36;0.00
23318;BME280;11831;55.918;37.746;2023-12-20T13:56:10;97611.53;;;7.20;0.00
23318;BME280;11831;55.918;37.746;2023-12-20T13:58:36;97624.88;;;7.03;0.00
23318;BME280;11831;55.918;37.746;2023-12-20T14:01:03;97619.34;;;7.04;0.00
23318;BME280;11831;55.918;37.746;2023-12-20T14:03:29;97625.63;;;6.98;0.00
23318;BME280;11831;55.918;37.746;2023-12-20T14:05:57;97638.59;;;6.73;0.00
23318;BME280;11831;55.918;37.746;2023-12-20T14:08:23;97636.03;;;6.78;0.00
23318;BME280;11831;55.918;37.746;2023-12-20T14:10:50;97639.47;;;6.57;0.00
23318;BME280;11831;55.918;37.746;2023-12-20T14:13:16;97631.31;;;6.63;0.00
23318;BME280;11831;55.918;37.746;2023-12-20T14:15:42;97643.56;;;6.86;0.00
23318;BME280;11831;55.918;37.746;2023-12-20T14:18:08;97655.75;;;6.43;0.00
23318;BME280;11831;55.918;37.746;2023-12-20T14:20:36;97660.28;;;6.26;0.00
23318;BME280;11831;55.918;37.746;2023-12-20T14:23:03;97644.56;;;6.80;0.00
23318;BME280;11831;55.918;37.746;2023-12-20T14:25:29;97641.81;;;6.97;0.00
23318;BME280;11831;55.918;37.746;2023-12-20T14:27:57;97656.00;;;6.08;0.00
23318;BME280;11831;55.918;37.746;2023-12-20T14:30:24;97648.75;;;6.76;0.00
23318;BME280;11831;55.918;37.746;2023-12-20T14:32:50;97677.00;;;6.27;0.00
23318;BME280;11831;55.918;37.746;2023-12-20T14:35:16;97659.66;;;6.19;0.00
23318;BME280;11831;55.918;37.746;2023-12-20T14:37:43;97666.03;;;6.57;0.00
23318;BME280;11831;55.918;37.746;2023-12-20T14:40:10;97652.13;;;6.71;0.00
23318;BME280;11831;55.918;37.746;2023-12-20T14:42:41;97659.09;;;6.56;0.00
23318;BME280;11831;55.918;37.746;2023-12-20T14:45:08;97670.00;;;6.37;0.00
23318;BME280;11831;55.918;37.746;2023-12-20T14:47:35;97670.53;;;6.39;0.00
23318;BME280;11831;55.918;37.746;2023-12-20T14:50:05;97674.91;;;6.29;0.00
23318;BME280;11831;55.918;37.746;2023-12-20T14:52:35;97667.06;;;6.17;0.00
23318;BME280;11831;55.918;37.746;2023-12-20T14:55:01;97671.22;;;5.96;0.00
23318;BME280;11831;55.918;37.746;2023-12-20T14:57:31;97665.94;;;6.13;0.00
23318;BME280;11831;55.918;37.746;2023-12-20T14:59:58;97685.03;;;5.98;0.00
23318;BME280;11831;55.918;37.746;2023-12-20T15:02:24;97674.16;;;6.50;0.00
23318;BME280;11831;55.918;37.746;2023-12-20T15:04:50;97688.53;;;6.15;0.00
23318;BME280;11831;55.918;37.746;2023-12-20T15:07:17;97683.03;;;6.05;0.00
23318;BME280;11831;55.918;37.746;2023-12-20T15:09:43;97679.25;;;6.35;0.00
23318;BME280;11831;55.918;37.746;2023-12-20T15:12:13;97679.72;;;6.48;0.00
23318;BME280;11831;55.918;37.746;2023-12-20T15:14:40;97687.38;;;6.11;0.00
23318;BME280;11831;55.918;37.746;2023-12-20T15:17:06;97697.81;;;5.84;0.00
23318;BME280;11831;55.918;37.746;2023-12-20T15:19:32;97682.78;;;6.40;0.00
23318;BME280;11831;55.918;37.746;2023-12-20T15:21:59;97703.06;;;6.30;0.00
23318;BME280;11831;55.918;37.746;2023-12-20T15:24:26;97695.34;;;6.45;0.00
23318;BME280;11831;55.918;37.746;2023-12-20T15:26:55;97695.69;;;6.15;0.00
23318;BME280;11831;55.918;37.746;2023-12-20T15:29:22;97695.19;;;6.18;0.00
23318;BME280;11831;55.918;37.746;2023-12-20T15:31:48;97684.63;;;6.57;0.00
23318;BME280;11831;55.918;37.746;2023-12-20T15:34:15;97690.03;;;6.11;0.00
23318;BME280;11831;55.918;37.746;2023-12-20T15:36:42;97695.59;;;6.43;0.00
23318;BME280;11831;55.918;37.746;2023-12-20T15:39:08;97686.63;;;6.49;0.00
23318;BME280;11831;55.918;37.746;2023-12-20T15:41:35;97691.72;;;6.73;0.00
23318;BME280;11831;55.918;37.746;2023-12-20T15:44:01;97696.88;;;6.79;0.00
23318;BME280;11831;55.918;37.746;2023-12-20T15:46:28;97690.84;;;6.67;0.00
23318;BME280;11831;55.918;37.746;2023-12-20T15:48:54;97690.94;;;6.94;0.00
23318;BME280;11831;55.918;37.746;2023-12-20T15:51:21;97685.25;;;7.29;0.00
23318;BME280;11831;55.918;37.746;2023-12-20T15:53:48;97690.87;;;7.33;0.00
23318;BME280;11831;55.918;37.746;2023-12-20T15:56:16;97684.94;;;7.26;0.00
23318;BME280;11831;55.918;37.746;2023-12-20T15:58:42;97685.56;;;7.60;0.00
23318;BME280;11831;55.918;37.746;2023-12-20T16:01:09;97703.50;;;7.21;0.00
23318;BME280;11831;55.918;37.746;2023-12-20T16:03:35;97700.69;;;7.32;0.00
23318;BME280;11831;55.918;37.746;2023-12-20T16:06:02;97704.41;;;7.31;0.00
23318;BME280;11831;55.918;37.746;2023-12-20T16:08:28;97704.84;;;7.23;0.00
23318;BME280;11831;55.918;37.746;2023-12-20T16:10:55;97701.19;;;7.78;0.00
23318;BME280;11831;55.918;37.746;2023-12-20T16:13:21;97713.81;;;6.95;0.00
23318;BME280;11831;55.918;37.746;2023-12-20T16:15:48;97725.91;;;6.47;0.00
23318;BME280;11831;55.918;37.746;2023-12-20T16:18:14;97719.22;;;6.45;0.00
23318;BME280;11831;55.918;37.746;2023-12-20T16:20:41;97727.78;;;6.69;0.00
23318;BME280;11831;55.918;37.746;2023-12-20T16:23:07;97732.00;;;6.65;0.00
23318;BME280;11831;55.918;37.746;2023-12-20T16:25:34;97721.84;;;7.22;0.00
23318;BME280;11831;55.918;37.746;2023-12-20T16:28:06;97726.25;;;7.11;0.00
23318;BME280;11831;55.918;37.746;2023-12-20T16:30:33;97726.16;;;7.99;0.00
23318;BME280;11831;55.918;37.746;2023-12-20T16:33:00;97733.41;;;7.55;0.00
23318;BME280;11831;55.918;37.746;2023-12-20T16:35:26;97715.22;;;6.81;0.00
23318;BME280;11831;55.918;37.746;2023-12-20T16:37:53;97711.97;;;7.39;0.00
23318;BME280;11831;55.918;37.746;2023-12-20T16:40:19;97712.69;;;7.57;0.00
23318;BME280;11831;55.918;37.746;2023-12-20T16:42:53;97727.16;;;7.66;0.00
23318;BME280;11831;55.918;37.746;2023-12-20T16:45:23;97726.88;;;7.19;0.00
23318;BME280;11831;55.918;37.746;2023-12-20T16:47:50;97734.69;;;7.74;0.00
23318;BME280;11831;55.918;37.746;2023-12-20T16:50:16;97734.97;;;7.29;0.00
23318;BME280;11831;55.918;37.746;2023-12-20T16:52:43;97737.28;;;7.03;0.00
23318;BME280;11831;55.918;37.746;2023-12-20T16:55:10;97728.38;;;6.93;0.00
23318;BME280;11831;55.918;37.746;2023-12-20T16:57:38;97713.38;;;7.25;0.00
23318;BME280;11831;55.918;37.746;2023-12-20T17:00:05;97713.87;;;7.44;0.00
23318;BME280;11831;55.918;37.746;2023-12-20T17:02:33;97693.94;;;7.68;0.00
23318;BME280;11831;55.918;37.746;2023-12-20T17:05:00;97701.38;;;6.79;0.00
23318;BME280;11831;55.918;37.746;2023-12-20T17:07:26;97695.59;;;6.27;0.00
23318;BME280;11831;55.918;37.746;2023-12-20T17:09:53;97707.87;;;6.49;0.00
23318;BME280;11831;55.918;37.746;2023-12-20T17:12:20;97710.34;;;6.95;0.00
23318;BME280;11831;55.918;37.746;2023-12-20T17:14:46;97702.28;;;7.06;0.00
23318;BME280;11831;55.918;37.746;2023-12-20T17:17:12;97712.28;;;6.61;0.00
23318;BME280;11831;55.918;37.746;2023-12-20T17:19:39;97715.22;;;6.81;0.00
23318;BME280;11831;55.918;37.746;2023-12-20T17:22:07;97719.38;;;6.94;0.00
23318;BME280;11831;55.918;37.746;2023-12-20T17:24:35;97707.03;;;6.66;0.00
23318;BME280;11831;55.918;37.746;2023-12-20T17:27:03;97703.09;;;7.34;0.00